sensor_id;sensor_type;location;lat;lon;timestamp;P1;durP1;ratioP1;P2;durP2;ratioP2
26977;SDS011;56314;48.088;11.642;2023-05-06T00:00:46;2.53;;;2.30;;
26977;SDS011;56314;48.088;11.642;2023-05-06T00:03:12;2.53;;;2.33;;
26977;SDS011;56314;48.088;11.642;2023-05-06T00:05:40;1.83;;;1.70;;
26977;SDS011;56314;48.088;11.642;2023-05-06T00:08:06;5.68;;;2.30;;
26977;SDS011;56314;48.088;11.642;2023-05-06T00:10:37;4.03;;;2.65;;
26977;SDS011;56314;48.088;11.642;2023-05-06T00:13:02;2.40;;;2.20;;
26977;SDS011;56314;48.088;11.642;2023-05-06T00:15:31;2.20;;;2.00;;
26977;SDS011;56314;48.088;11.642;2023-05-06T00:17:56;2.50;;;2.17;;
26977;SDS011;56314;48.088;11.642;2023-05-06T00:20:22;3.28;;;2.35;;
26977;SDS011;56314;48.088;11.642;2023-05-06T00:22:47;2.90;;;2.00;;
26977;SDS011;56314;48.088;11.642;2023-05-06T00:25:12;2.05;;;1.55;;
26977;SDS011;56314;48.088;11.642;2023-05-06T00:27:38;2.58;;;2.03;;
26977;SDS011;56314;48.088;11.642;2023-05-06T00:30:06;2.65;;;2.13;;
26977;SDS011;56314;48.088;11.642;2023-05-06T00:32:32;2.17;;;1.90;;
26977;SDS011;56314;48.088;11.642;2023-05-06T00:34:57;1.65;;;1.55;;
26977;SDS011;56314;48.088;11.642;2023-05-06T00:37:23;2.33;;;1.92;;
26977;SDS011;56314;48.088;11.642;2023-05-06T00:39:48;2.50;;;1.88;;
26977;SDS011;56314;48.088;11.642;2023-05-06T00:42:13;2.20;;;2.00;;
26977;SDS011;56314;48.088;11.642;2023-05-06T00:44:39;2.03;;;1.70;;
26977;SDS011;56314;48.088;11.642;2023-05-06T00:47:04;2.90;;;1.90;;
26977;SDS011;56314;48.088;11.642;2023-05-06T00:49:30;2.10;;;1.80;;
26977;SDS011;56314;48.088;11.642;2023-05-06T00:51:58;1.73;;;1.63;;
26977;SDS011;56314;48.088;11.642;2023-05-06T00:54:25;2.42;;;1.90;;
26977;SDS011;56314;48.088;11.642;2023-05-06T00:56:51;2.53;;;1.80;;
26977;SDS011;56314;48.088;11.642;2023-05-06T00:59:16;1.80;;;1.60;;
26977;SDS011;56314;48.088;11.642;2023-05-06T01:01:42;2.55;;;1.50;;
26977;SDS011;56314;48.088;11.642;2023-05-06T01:04:07;1.90;;;1.63;;
26977;SDS011;56314;48.088;11.642;2023-05-06T01:06:49;2.65;;;1.67;;
26977;SDS011;56314;48.088;11.642;2023-05-06T01:11:58;1.50;;;1.40;;
26977;SDS011;56314;48.088;11.642;2023-05-06T01:17:35;2.53;;;1.55;;
26977;SDS011;56314;48.088;11.642;2023-05-06T01:20:07;1.85;;;1.60;;
26977;SDS011;56314;48.088;11.642;2023-05-06T01:22:36;6.85;;;1.77;;
26977;SDS011;56314;48.088;11.642;2023-05-06T01:25:02;1.48;;;1.38;;
26977;SDS011;56314;48.088;11.642;2023-05-06T01:27:28;2.17;;;1.35;;
26977;SDS011;56314;48.088;11.642;2023-05-06T01:29:53;1.88;;;1.30;;
26977;SDS011;56314;48.088;11.642;2023-05-06T01:40:50;1.67;;;1.33;;
26977;SDS011;56314;48.088;11.642;2023-05-06T01:43:20;2.03;;;1.80;;
26977;SDS011;56314;48.088;11.642;2023-05-06T01:45:48;1.48;;;1.38;;
26977;SDS011;56314;48.088;11.642;2023-05-06T01:48:21;1.60;;;1.23;;
26977;SDS011;56314;48.088;11.642;2023-05-06T01:50:50;3.42;;;1.70;;
26977;SDS011;56314;48.088;11.642;2023-05-06T01:53:15;2.05;;;1.45;;
26977;SDS011;56314;48.088;11.642;2023-05-06T01:55:41;2.35;;;1.48;;
26977;SDS011;56314;48.088;11.642;2023-05-06T01:58:06;1.35;;;1.25;;
26977;SDS011;56314;48.088;11.642;2023-05-06T02:00:32;1.55;;;1.45;;
26977;SDS011;56314;48.088;11.642;2023-05-06T02:02:57;3.75;;;1.55;;
26977;SDS011;56314;48.088;11.642;2023-05-06T02:05:23;1.63;;;1.48;;
26977;SDS011;56314;48.088;11.642;2023-05-06T02:07:48;1.65;;;1.40;;
26977;SDS011;56314;48.088;11.642;2023-05-06T02:10:13;1.63;;;1.52;;
26977;SDS011;56314;48.088;11.642;2023-05-06T02:12:39;1.35;;;1.25;;
26977;SDS011;56314;48.088;11.642;2023-05-06T02:15:04;1.85;;;1.25;;
26977;SDS011;56314;48.088;11.642;2023-05-06T02:17:30;2.10;;;1.25;;
26977;SDS011;56314;48.088;11.642;2023-05-06T02:19:58;1.50;;;1.40;;
26977;SDS011;56314;48.088;11.642;2023-05-06T02:22:23;1.83;;;1.48;;
26977;SDS011;56314;48.088;11.642;2023-05-06T02:24:48;1.30;;;1.20;;
26977;SDS011;56314;48.088;11.642;2023-05-06T02:27:14;1.38;;;1.27;;
26977;SDS011;56314;48.088;11.642;2023-05-06T02:29:39;1.60;;;1.50;;
26977;SDS011;56314;48.088;11.642;2023-05-06T02:32:04;1.23;;;1.13;;
26977;SDS011;56314;48.088;11.642;2023-05-06T02:34:30;2.08;;;1.85;;
26977;SDS011;56314;48.088;11.642;2023-05-06T02:36:56;1.73;;;1.63;;
26977;SDS011;56314;48.088;11.642;2023-05-06T02:39:22;1.30;;;1.20;;
26977;SDS011;56314;48.088;11.642;2023-05-06T02:41:48;1.65;;;1.55;;
26977;SDS011;56314;48.088;11.642;2023-05-06T02:44:13;1.77;;;1.40;;
26977;SDS011;56314;48.088;11.642;2023-05-06T02:46:39;1.77;;;1.58;;
26977;SDS011;56314;48.088;11.642;2023-05-06T02:49:04;2.63;;;1.50;;
26977;SDS011;56314;48.088;11.642;2023-05-06T02:51:29;1.40;;;1.30;;
26977;SDS011;56314;48.088;11.642;2023-05-06T02:53:55;3.33;;;1.42;;
26977;SDS011;56314;48.088;11.642;2023-05-06T02:56:20;2.00;;;1.80;;
26977;SDS011;56314;48.088;11.642;2023-05-06T02:58:45;1.70;;;1.55;;
26977;SDS011;56314;48.088;11.642;2023-05-06T03:01:11;1.50;;;1.40;;
26977;SDS011;56314;48.088;11.642;2023-05-06T03:03:36;1.58;;;1.20;;
26977;SDS011;56314;48.088;11.642;2023-05-06T03:06:01;2.83;;;1.77;;
26977;SDS011;56314;48.088;11.642;2023-05-06T03:08:27;1.73;;;1.50;;
26977;SDS011;56314;48.088;11.642;2023-05-06T03:10:52;1.40;;;1.30;;
26977;SDS011;56314;48.088;11.642;2023-05-06T03:13:17;3.97;;;1.33;;
26977;SDS011;56314;48.088;11.642;2023-05-06T03:15:43;1.60;;;1.30;;
26977;SDS011;56314;48.088;11.642;2023-05-06T03:18:08;1.42;;;1.27;;
26977;SDS011;56314;48.088;11.642;2023-05-06T03:20:33;2.05;;;1.10;;
26977;SDS011;56314;48.088;11.642;2023-05-06T03:22:59;1.40;;;1.30;;
26977;SDS011;56314;48.088;11.642;2023-05-06T03:25:24;1.30;;;1.20;;
26977;SDS011;56314;48.088;11.642;2023-05-06T03:27:50;2.63;;;1.60;;
26977;SDS011;56314;48.088;11.642;2023-05-06T03:30:15;1.65;;;1.30;;
26977;SDS011;56314;48.088;11.642;2023-05-06T03:32:41;1.10;;;1.00;;
26977;SDS011;56314;48.088;11.642;2023-05-06T03:35:06;2.08;;;1.50;;
26977;SDS011;56314;48.088;11.642;2023-05-06T03:37:32;1.60;;;1.50;;
26977;SDS011;56314;48.088;11.642;2023-05-06T03:39:57;1.95;;;1.75;;
26977;SDS011;56314;48.088;11.642;2023-05-06T03:42:24;2.83;;;1.75;;
26977;SDS011;56314;48.088;11.642;2023-05-06T03:44:50;1.65;;;1.55;;
26977;SDS011;56314;48.088;11.642;2023-05-06T03:47:15;2.15;;;1.50;;
26977;SDS011;56314;48.088;11.642;2023-05-06T03:49:41;4.03;;;1.80;;
26977;SDS011;56314;48.088;11.642;2023-05-06T03:52:06;2.03;;;1.55;;
26977;SDS011;56314;48.088;11.642;2023-05-06T03:54:32;1.88;;;1.77;;
26977;SDS011;56314;48.088;11.642;2023-05-06T03:56:57;1.88;;;1.77;;
26977;SDS011;56314;48.088;11.642;2023-05-06T03:59:22;1.50;;;1.40;;
26977;SDS011;56314;48.088;11.642;2023-05-06T04:01:48;2.08;;;1.48;;
26977;SDS011;56314;48.088;11.642;2023-05-06T04:04:13;1.60;;;1.50;;
26977;SDS011;56314;48.088;11.642;2023-05-06T04:06:38;2.30;;;1.30;;
26977;SDS011;56314;48.088;11.642;2023-05-06T04:09:04;1.75;;;1.63;;
26977;SDS011;56314;48.088;11.642;2023-05-06T04:11:30;1.30;;;1.20;;
26977;SDS011;56314;48.088;11.642;2023-05-06T04:13:55;1.48;;;1.38;;
26977;SDS011;56314;48.088;11.642;2023-05-06T04:16:21;2.05;;;1.48;;
26977;SDS011;56314;48.088;11.642;2023-05-06T04:18:46;1.75;;;1.52;;
26977;SDS011;56314;48.088;11.642;2023-05-06T04:21:11;7.68;;;1.63;;
26977;SDS011;56314;48.088;11.642;2023-05-06T04:23:37;1.92;;;1.40;;
26977;SDS011;56314;48.088;11.642;2023-05-06T04:26:02;2.15;;;1.27;;
26977;SDS011;56314;48.088;11.642;2023-05-06T04:28:28;0.82;;;0.82;;
26977;SDS011;56314;48.088;11.642;2023-05-06T04:30:53;1.48;;;1.38;;
26977;SDS011;56314;48.088;11.642;2023-05-06T04:33:18;1.40;;;1.20;;
26977;SDS011;56314;48.088;11.642;2023-05-06T04:35:50;1.10;;;1.00;;
26977;SDS011;56314;48.088;11.642;2023-05-06T04:38:20;1.42;;;1.33;;
26977;SDS011;56314;48.088;11.642;2023-05-06T04:40:47;1.50;;;1.40;;
26977;SDS011;56314;48.088;11.642;2023-05-06T04:43:13;2.67;;;1.50;;
26977;SDS011;56314;48.088;11.642;2023-05-06T04:45:41;3.85;;;1.60;;
26977;SDS011;56314;48.088;11.642;2023-05-06T04:48:07;1.35;;;1.05;;
26977;SDS011;56314;48.088;11.642;2023-05-06T04:50:33;2.65;;;1.65;;
26977;SDS011;56314;48.088;11.642;2023-05-06T04:52:59;1.35;;;1.25;;
26977;SDS011;56314;48.088;11.642;2023-05-06T04:55:24;1.58;;;1.10;;
26977;SDS011;56314;48.088;11.642;2023-05-06T04:57:49;1.63;;;1.13;;
26977;SDS011;56314;48.088;11.642;2023-05-06T05:00:15;1.80;;;1.70;;
26977;SDS011;56314;48.088;11.642;2023-05-06T05:02:41;1.95;;;1.60;;
26977;SDS011;56314;48.088;11.642;2023-05-06T05:05:06;2.10;;;1.40;;
26977;SDS011;56314;48.088;11.642;2023-05-06T05:07:32;1.60;;;1.45;;
26977;SDS011;56314;48.088;11.642;2023-05-06T05:09:57;1.52;;;1.30;;
26977;SDS011;56314;48.088;11.642;2023-05-06T05:12:23;1.23;;;1.13;;
26977;SDS011;56314;48.088;11.642;2023-05-06T05:14:48;5.03;;;3.42;;
26977;SDS011;56314;48.088;11.642;2023-05-06T05:17:13;2.08;;;1.60;;
26977;SDS011;56314;48.088;11.642;2023-05-06T05:19:38;1.92;;;1.58;;
26977;SDS011;56314;48.088;11.642;2023-05-06T05:22:04;2.33;;;1.65;;
26977;SDS011;56314;48.088;11.642;2023-05-06T05:24:30;1.80;;;1.45;;
26977;SDS011;56314;48.088;11.642;2023-05-06T05:26:55;1.33;;;1.23;;
26977;SDS011;56314;48.088;11.642;2023-05-06T05:29:20;1.30;;;1.20;;
26977;SDS011;56314;48.088;11.642;2023-05-06T05:31:46;2.00;;;1.60;;
26977;SDS011;56314;48.088;11.642;2023-05-06T05:34:11;1.83;;;1.48;;
26977;SDS011;56314;48.088;11.642;2023-05-06T05:36:36;2.58;;;1.58;;
26977;SDS011;56314;48.088;11.642;2023-05-06T05:39:02;2.13;;;1.30;;
26977;SDS011;56314;48.088;11.642;2023-05-06T05:41:27;2.40;;;1.10;;
26977;SDS011;56314;48.088;11.642;2023-05-06T05:43:53;2.75;;;1.40;;
26977;SDS011;56314;48.088;11.642;2023-05-06T05:46:19;1.63;;;1.35;;
26977;SDS011;56314;48.088;11.642;2023-05-06T05:48:44;1.67;;;1.40;;
26977;SDS011;56314;48.088;11.642;2023-05-06T05:51:09;1.10;;;1.05;;
26977;SDS011;56314;48.088;11.642;2023-05-06T05:53:35;2.42;;;1.70;;
26977;SDS011;56314;48.088;11.642;2023-05-06T05:56:00;1.50;;;1.20;;
26977;SDS011;56314;48.088;11.642;2023-05-06T05:58:25;2.30;;;1.85;;
26977;SDS011;56314;48.088;11.642;2023-05-06T06:00:51;2.67;;;1.85;;
26977;SDS011;56314;48.088;11.642;2023-05-06T06:03:16;1.85;;;1.65;;
26977;SDS011;56314;48.088;11.642;2023-05-06T06:05:42;1.50;;;1.17;;
26977;SDS011;56314;48.088;11.642;2023-05-06T06:08:08;2.60;;;2.40;;
26977;SDS011;56314;48.088;11.642;2023-05-06T06:10:33;1.75;;;1.65;;
26977;SDS011;56314;48.088;11.642;2023-05-06T06:12:59;3.00;;;1.60;;
26977;SDS011;56314;48.088;11.642;2023-05-06T06:15:24;2.13;;;1.63;;
26977;SDS011;56314;48.088;11.642;2023-05-06T06:17:51;1.60;;;1.50;;
26977;SDS011;56314;48.088;11.642;2023-05-06T06:20:17;2.13;;;1.58;;
26977;SDS011;56314;48.088;11.642;2023-05-06T06:22:43;3.03;;;1.77;;
26977;SDS011;56314;48.088;11.642;2023-05-06T06:25:08;2.13;;;1.70;;
26977;SDS011;56314;48.088;11.642;2023-05-06T06:27:34;1.90;;;1.73;;
26977;SDS011;56314;48.088;11.642;2023-05-06T06:30:00;2.15;;;1.80;;
26977;SDS011;56314;48.088;11.642;2023-05-06T06:32:26;2.13;;;1.92;;
26977;SDS011;56314;48.088;11.642;2023-05-06T06:34:51;2.95;;;2.35;;
26977;SDS011;56314;48.088;11.642;2023-05-06T06:37:16;2.63;;;2.20;;
26977;SDS011;56314;48.088;11.642;2023-05-06T06:39:42;4.13;;;1.85;;
26977;SDS011;56314;48.088;11.642;2023-05-06T06:42:07;2.60;;;2.33;;
26977;SDS011;56314;48.088;11.642;2023-05-06T06:44:33;3.55;;;2.40;;
26977;SDS011;56314;48.088;11.642;2023-05-06T06:46:59;3.45;;;2.45;;
26977;SDS011;56314;48.088;11.642;2023-05-06T06:49:25;3.30;;;2.33;;
26977;SDS011;56314;48.088;11.642;2023-05-06T06:51:51;6.28;;;2.20;;
26977;SDS011;56314;48.088;11.642;2023-05-06T06:54:16;2.45;;;2.25;;
26977;SDS011;56314;48.088;11.642;2023-05-06T06:56:41;3.45;;;2.65;;
26977;SDS011;56314;48.088;11.642;2023-05-06T06:59:07;4.60;;;3.15;;
26977;SDS011;56314;48.088;11.642;2023-05-06T07:01:32;4.03;;;2.35;;
26977;SDS011;56314;48.088;11.642;2023-05-06T07:03:57;3.33;;;2.50;;
26977;SDS011;56314;48.088;11.642;2023-05-06T07:06:23;2.47;;;2.17;;
26977;SDS011;56314;48.088;11.642;2023-05-06T07:08:48;2.67;;;2.40;;
26977;SDS011;56314;48.088;11.642;2023-05-06T07:11:14;2.85;;;2.58;;
26977;SDS011;56314;48.088;11.642;2023-05-06T07:13:39;4.13;;;2.45;;
26977;SDS011;56314;48.088;11.642;2023-05-06T07:16:05;4.30;;;2.40;;
26977;SDS011;56314;48.088;11.642;2023-05-06T07:18:30;2.97;;;2.70;;
26977;SDS011;56314;48.088;11.642;2023-05-06T07:20:55;3.97;;;2.67;;
26977;SDS011;56314;48.088;11.642;2023-05-06T07:23:21;4.00;;;3.10;;
26977;SDS011;56314;48.088;11.642;2023-05-06T07:25:46;3.85;;;3.45;;
26977;SDS011;56314;48.088;11.642;2023-05-06T07:28:12;5.03;;;3.90;;
26977;SDS011;56314;48.088;11.642;2023-05-06T07:30:38;6.13;;;3.60;;
26977;SDS011;56314;48.088;11.642;2023-05-06T07:33:03;5.05;;;3.95;;
26977;SDS011;56314;48.088;11.642;2023-05-06T07:35:29;6.05;;;4.35;;
26977;SDS011;56314;48.088;11.642;2023-05-06T07:37:54;4.80;;;4.28;;
26977;SDS011;56314;48.088;11.642;2023-05-06T07:40:20;8.95;;;5.03;;
26977;SDS011;56314;48.088;11.642;2023-05-06T07:42:45;5.57;;;4.38;;
26977;SDS011;56314;48.088;11.642;2023-05-06T07:45:10;7.45;;;4.82;;
26977;SDS011;56314;48.088;11.642;2023-05-06T07:47:36;7.90;;;5.68;;
26977;SDS011;56314;48.088;11.642;2023-05-06T07:50:01;6.82;;;5.00;;
26977;SDS011;56314;48.088;11.642;2023-05-06T07:52:28;9.25;;;5.00;;
26977;SDS011;56314;48.088;11.642;2023-05-06T07:54:54;5.88;;;5.03;;
26977;SDS011;56314;48.088;11.642;2023-05-06T07:57:19;6.50;;;4.63;;
26977;SDS011;56314;48.088;11.642;2023-05-06T07:59:48;5.82;;;5.15;;
26977;SDS011;56314;48.088;11.642;2023-05-06T08:02:15;8.63;;;4.68;;
26977;SDS011;56314;48.088;11.642;2023-05-06T08:04:40;5.65;;;5.07;;
26977;SDS011;56314;48.088;11.642;2023-05-06T08:07:06;7.50;;;5.20;;
26977;SDS011;56314;48.088;11.642;2023-05-06T08:09:32;6.32;;;5.15;;
26977;SDS011;56314;48.088;11.642;2023-05-06T08:11:57;5.75;;;5.03;;
26977;SDS011;56314;48.088;11.642;2023-05-06T08:14:23;5.45;;;4.60;;
26977;SDS011;56314;48.088;11.642;2023-05-06T08:16:50;5.80;;;5.05;;
26977;SDS011;56314;48.088;11.642;2023-05-06T08:19:16;8.30;;;5.25;;
26977;SDS011;56314;48.088;11.642;2023-05-06T08:21:41;8.25;;;5.20;;
26977;SDS011;56314;48.088;11.642;2023-05-06T08:24:07;6.65;;;4.88;;
26977;SDS011;56314;48.088;11.642;2023-05-06T08:26:32;6.80;;;4.07;;
26977;SDS011;56314;48.088;11.642;2023-05-06T08:28:58;5.35;;;4.05;;
26977;SDS011;56314;48.088;11.642;2023-05-06T08:31:23;4.57;;;4.10;;
26977;SDS011;56314;48.088;11.642;2023-05-06T08:33:48;5.13;;;4.05;;
26977;SDS011;56314;48.088;11.642;2023-05-06T08:36:15;5.28;;;4.38;;
26977;SDS011;56314;48.088;11.642;2023-05-06T08:38:40;6.30;;;4.43;;
26977;SDS011;56314;48.088;11.642;2023-05-06T08:41:12;5.45;;;4.07;;
26977;SDS011;56314;48.088;11.642;2023-05-06T08:43:44;4.25;;;3.67;;
26977;SDS011;56314;48.088;11.642;2023-05-06T08:46:10;3.47;;;3.08;;
26977;SDS011;56314;48.088;11.642;2023-05-06T08:48:37;7.55;;;6.60;;
26977;SDS011;56314;48.088;11.642;2023-05-06T08:51:02;4.93;;;3.90;;
26977;SDS011;56314;48.088;11.642;2023-05-06T08:53:29;5.85;;;3.90;;
26977;SDS011;56314;48.088;11.642;2023-05-06T08:56:00;4.88;;;3.33;;
26977;SDS011;56314;48.088;11.642;2023-05-06T08:58:30;7.15;;;3.80;;
26977;SDS011;56314;48.088;11.642;2023-05-06T09:00:59;4.63;;;4.03;;
26977;SDS011;56314;48.088;11.642;2023-05-06T09:03:25;4.47;;;4.05;;
26977;SDS011;56314;48.088;11.642;2023-05-06T09:05:50;5.93;;;4.25;;
26977;SDS011;56314;48.088;11.642;2023-05-06T09:08:15;4.10;;;3.58;;
26977;SDS011;56314;48.088;11.642;2023-05-06T09:10:42;3.55;;;3.25;;
26977;SDS011;56314;48.088;11.642;2023-05-06T09:13:12;4.88;;;3.25;;
26977;SDS011;56314;48.088;11.642;2023-05-06T09:15:40;3.53;;;2.92;;
26977;SDS011;56314;48.088;11.642;2023-05-06T09:18:17;7.28;;;3.53;;
26977;SDS011;56314;48.088;11.642;2023-05-06T09:20:46;3.58;;;2.67;;
26977;SDS011;56314;48.088;11.642;2023-05-06T09:23:13;3.00;;;2.80;;
26977;SDS011;56314;48.088;11.642;2023-05-06T09:25:41;3.25;;;2.88;;
26977;SDS011;56314;48.088;11.642;2023-05-06T09:28:09;2.90;;;2.35;;
26977;SDS011;56314;48.088;11.642;2023-05-06T09:30:42;2.88;;;2.42;;
26977;SDS011;56314;48.088;11.642;2023-05-06T09:33:10;3.75;;;2.25;;
26977;SDS011;56314;48.088;11.642;2023-05-06T09:35:36;3.70;;;2.35;;
26977;SDS011;56314;48.088;11.642;2023-05-06T09:38:03;3.38;;;2.35;;
26977;SDS011;56314;48.088;11.642;2023-05-06T09:40:29;2.90;;;2.08;;
26977;SDS011;56314;48.088;11.642;2023-05-06T09:42:55;2.83;;;2.40;;
26977;SDS011;56314;48.088;11.642;2023-05-06T09:45:21;4.03;;;2.72;;
26977;SDS011;56314;48.088;11.642;2023-05-06T09:47:48;2.92;;;1.90;;
26977;SDS011;56314;48.088;11.642;2023-05-06T09:50:14;3.30;;;2.08;;
26977;SDS011;56314;48.088;11.642;2023-05-06T09:52:43;2.15;;;1.90;;
26977;SDS011;56314;48.088;11.642;2023-05-06T09:55:09;2.95;;;2.72;;
26977;SDS011;56314;48.088;11.642;2023-05-06T09:57:35;3.13;;;2.35;;
26977;SDS011;56314;48.088;11.642;2023-05-06T10:00:01;2.25;;;2.05;;
26977;SDS011;56314;48.088;11.642;2023-05-06T10:02:27;1.88;;;1.77;;
26977;SDS011;56314;48.088;11.642;2023-05-06T10:04:55;4.40;;;1.83;;
26977;SDS011;56314;48.088;11.642;2023-05-06T10:07:21;2.33;;;1.77;;
26977;SDS011;56314;48.088;11.642;2023-05-06T10:09:47;1.92;;;1.55;;
26977;SDS011;56314;48.088;11.642;2023-05-06T10:12:14;2.60;;;1.27;;
26977;SDS011;56314;48.088;11.642;2023-05-06T10:14:40;1.60;;;1.50;;
26977;SDS011;56314;48.088;11.642;2023-05-06T10:17:08;1.90;;;1.80;;
26977;SDS011;56314;48.088;11.642;2023-05-06T10:19:38;2.38;;;1.67;;
26977;SDS011;56314;48.088;11.642;2023-05-06T10:22:18;2.20;;;1.70;;
26977;SDS011;56314;48.088;11.642;2023-05-06T10:24:57;2.30;;;2.10;;
26977;SDS011;56314;48.088;11.642;2023-05-06T10:27:23;2.95;;;1.45;;
26977;SDS011;56314;48.088;11.642;2023-05-06T10:29:50;2.67;;;1.80;;
26977;SDS011;56314;48.088;11.642;2023-05-06T10:32:20;2.33;;;2.05;;
26977;SDS011;56314;48.088;11.642;2023-05-06T10:34:50;1.90;;;1.45;;
26977;SDS011;56314;48.088;11.642;2023-05-06T10:37:19;1.70;;;1.60;;
26977;SDS011;56314;48.088;11.642;2023-05-06T10:39:50;2.88;;;2.00;;
26977;SDS011;56314;48.088;11.642;2023-05-06T10:42:17;2.50;;;1.85;;
26977;SDS011;56314;48.088;11.642;2023-05-06T10:45:16;1.58;;;1.48;;
26977;SDS011;56314;48.088;11.642;2023-05-06T10:48:05;1.90;;;1.70;;
26977;SDS011;56314;48.088;11.642;2023-05-06T10:50:21;1.85;;;1.75;;
26977;SDS011;56314;48.088;11.642;2023-05-06T10:52:51;1.75;;;1.65;;
26977;SDS011;56314;48.088;11.642;2023-05-06T10:55:31;2.23;;;1.80;;
26977;SDS011;56314;48.088;11.642;2023-05-06T10:58:16;1.92;;;1.83;;
26977;SDS011;56314;48.088;11.642;2023-05-06T11:00:51;1.90;;;1.70;;
26977;SDS011;56314;48.088;11.642;2023-05-06T11:03:22;1.80;;;1.70;;
26977;SDS011;56314;48.088;11.642;2023-05-06T11:05:48;1.80;;;1.70;;
26977;SDS011;56314;48.088;11.642;2023-05-06T11:08:25;1.67;;;1.55;;
26977;SDS011;56314;48.088;11.642;2023-05-06T11:10:51;1.25;;;1.13;;
26977;SDS011;56314;48.088;11.642;2023-05-06T11:13:21;2.20;;;2.00;;
26977;SDS011;56314;48.088;11.642;2023-05-06T11:15:51;2.00;;;1.80;;
26977;SDS011;56314;48.088;11.642;2023-05-06T11:26:10;2.70;;;2.33;;
26977;SDS011;56314;48.088;11.642;2023-05-06T11:28:36;2.15;;;1.50;;
26977;SDS011;56314;48.088;11.642;2023-05-06T11:31:12;1.67;;;1.58;;
26977;SDS011;56314;48.088;11.642;2023-05-06T11:33:43;1.85;;;1.60;;
26977;SDS011;56314;48.088;11.642;2023-05-06T11:36:13;1.80;;;1.70;;
26977;SDS011;56314;48.088;11.642;2023-05-06T11:38:49;3.53;;;1.83;;
26977;SDS011;56314;48.088;11.642;2023-05-06T11:41:21;2.08;;;1.88;;
26977;SDS011;56314;48.088;11.642;2023-05-06T11:43:47;2.28;;;1.50;;
26977;SDS011;56314;48.088;11.642;2023-05-06T11:46:14;3.05;;;1.90;;
26977;SDS011;56314;48.088;11.642;2023-05-06T11:48:42;2.33;;;1.77;;
26977;SDS011;56314;48.088;11.642;2023-05-06T11:51:07;2.00;;;1.77;;
26977;SDS011;56314;48.088;11.642;2023-05-06T11:53:32;1.73;;;1.50;;
26977;SDS011;56314;48.088;11.642;2023-05-06T11:55:58;3.10;;;2.28;;
26977;SDS011;56314;48.088;11.642;2023-05-06T11:58:24;2.13;;;1.65;;
26977;SDS011;56314;48.088;11.642;2023-05-06T12:00:54;1.92;;;1.60;;
26977;SDS011;56314;48.088;11.642;2023-05-06T12:03:22;2.70;;;1.80;;
26977;SDS011;56314;48.088;11.642;2023-05-06T12:05:49;1.55;;;1.38;;
26977;SDS011;56314;48.088;11.642;2023-05-06T12:08:15;1.67;;;1.58;;
26977;SDS011;56314;48.088;11.642;2023-05-06T12:10:44;1.40;;;1.25;;
26977;SDS011;56314;48.088;11.642;2023-05-06T12:13:10;2.30;;;1.40;;
26977;SDS011;56314;48.088;11.642;2023-05-06T12:15:36;2.90;;;1.60;;
26977;SDS011;56314;48.088;11.642;2023-05-06T12:18:02;2.00;;;1.50;;
26977;SDS011;56314;48.088;11.642;2023-05-06T12:20:28;4.80;;;2.10;;
26977;SDS011;56314;48.088;11.642;2023-05-06T12:23:03;2.58;;;1.70;;
26977;SDS011;56314;48.088;11.642;2023-05-06T12:25:30;4.13;;;2.58;;
26977;SDS011;56314;48.088;11.642;2023-05-06T12:27:56;2.10;;;1.90;;
26977;SDS011;56314;48.088;11.642;2023-05-06T12:30:31;1.92;;;1.70;;
26977;SDS011;56314;48.088;11.642;2023-05-06T12:32:58;2.60;;;1.92;;
26977;SDS011;56314;48.088;11.642;2023-05-06T12:37:56;5.22;;;2.00;;
26977;SDS011;56314;48.088;11.642;2023-05-06T12:40:31;2.38;;;1.60;;
26977;SDS011;56314;48.088;11.642;2023-05-06T12:42:56;2.80;;;1.92;;
26977;SDS011;56314;48.088;11.642;2023-05-06T12:45:22;2.95;;;2.00;;
26977;SDS011;56314;48.088;11.642;2023-05-06T12:47:54;2.58;;;1.58;;
26977;SDS011;56314;48.088;11.642;2023-05-06T12:53:01;2.55;;;1.30;;
26977;SDS011;56314;48.088;11.642;2023-05-06T12:55:28;1.95;;;1.70;;
26977;SDS011;56314;48.088;11.642;2023-05-06T12:57:55;1.52;;;1.38;;
26977;SDS011;56314;48.088;11.642;2023-05-06T13:00:20;1.73;;;1.30;;
26977;SDS011;56314;48.088;11.642;2023-05-06T13:02:46;1.60;;;1.50;;
26977;SDS011;56314;48.088;11.642;2023-05-06T13:05:11;1.52;;;1.42;;
26977;SDS011;56314;48.088;11.642;2023-05-06T13:07:38;1.40;;;1.30;;
26977;SDS011;56314;48.088;11.642;2023-05-06T13:10:04;2.50;;;1.55;;
26977;SDS011;56314;48.088;11.642;2023-05-06T13:12:30;2.10;;;1.70;;
26977;SDS011;56314;48.088;11.642;2023-05-06T13:14:56;2.53;;;1.63;;
26977;SDS011;56314;48.088;11.642;2023-05-06T13:17:21;1.67;;;1.58;;
26977;SDS011;56314;48.088;11.642;2023-05-06T13:19:47;1.90;;;1.70;;
26977;SDS011;56314;48.088;11.642;2023-05-06T13:22:12;2.28;;;1.60;;
26977;SDS011;56314;48.088;11.642;2023-05-06T13:24:37;2.28;;;1.58;;
26977;SDS011;56314;48.088;11.642;2023-05-06T13:27:03;2.30;;;1.50;;
26977;SDS011;56314;48.088;11.642;2023-05-06T13:29:28;1.30;;;1.20;;
26977;SDS011;56314;48.088;11.642;2023-05-06T13:31:54;3.75;;;1.67;;
26977;SDS011;56314;48.088;11.642;2023-05-06T13:34:20;1.65;;;1.55;;
26977;SDS011;56314;48.088;11.642;2023-05-06T13:36:45;2.40;;;1.70;;
26977;SDS011;56314;48.088;11.642;2023-05-06T13:39:13;1.50;;;1.40;;
26977;SDS011;56314;48.088;11.642;2023-05-06T13:41:38;2.35;;;1.58;;
26977;SDS011;56314;48.088;11.642;2023-05-06T13:44:04;1.70;;;1.60;;
26977;SDS011;56314;48.088;11.642;2023-05-06T13:46:30;1.75;;;1.60;;
26977;SDS011;56314;48.088;11.642;2023-05-06T13:48:55;1.70;;;1.60;;
26977;SDS011;56314;48.088;11.642;2023-05-06T13:51:21;1.75;;;1.58;;
26977;SDS011;56314;48.088;11.642;2023-05-06T13:53:46;3.83;;;1.77;;
26977;SDS011;56314;48.088;11.642;2023-05-06T13:56:12;2.28;;;1.63;;
26977;SDS011;56314;48.088;11.642;2023-05-06T13:58:37;1.85;;;1.75;;
26977;SDS011;56314;48.088;11.642;2023-05-06T14:01:02;2.22;;;1.25;;
26977;SDS011;56314;48.088;11.642;2023-05-06T14:03:28;1.50;;;1.40;;
26977;SDS011;56314;48.088;11.642;2023-05-06T14:05:53;3.22;;;1.48;;
26977;SDS011;56314;48.088;11.642;2023-05-06T14:08:19;2.53;;;1.60;;
26977;SDS011;56314;48.088;11.642;2023-05-06T14:10:44;1.40;;;1.30;;
26977;SDS011;56314;48.088;11.642;2023-05-06T14:13:10;1.70;;;1.60;;
26977;SDS011;56314;48.088;11.642;2023-05-06T14:15:35;2.90;;;1.50;;
26977;SDS011;56314;48.088;11.642;2023-05-06T14:18:01;2.22;;;1.88;;
26977;SDS011;56314;48.088;11.642;2023-05-06T14:20:27;2.33;;;1.70;;
26977;SDS011;56314;48.088;11.642;2023-05-06T14:22:52;2.42;;;1.30;;
26977;SDS011;56314;48.088;11.642;2023-05-06T14:25:17;1.42;;;1.33;;
26977;SDS011;56314;48.088;11.642;2023-05-06T14:27:43;2.30;;;1.80;;
26977;SDS011;56314;48.088;11.642;2023-05-06T14:30:09;3.30;;;1.73;;
26977;SDS011;56314;48.088;11.642;2023-05-06T14:32:35;2.78;;;1.38;;
26977;SDS011;56314;48.088;11.642;2023-05-06T14:35:00;3.22;;;1.70;;
26977;SDS011;56314;48.088;11.642;2023-05-06T14:37:26;1.98;;;1.40;;
26977;SDS011;56314;48.088;11.642;2023-05-06T14:39:51;2.08;;;1.35;;
26977;SDS011;56314;48.088;11.642;2023-05-06T14:42:16;1.80;;;1.70;;
26977;SDS011;56314;48.088;11.642;2023-05-06T14:44:45;1.98;;;1.75;;
26977;SDS011;56314;48.088;11.642;2023-05-06T14:47:12;3.92;;;1.50;;
26977;SDS011;56314;48.088;11.642;2023-05-06T14:49:40;2.22;;;2.00;;
26977;SDS011;56314;48.088;11.642;2023-05-06T14:52:05;1.95;;;1.75;;
26977;SDS011;56314;48.088;11.642;2023-05-06T14:54:31;1.60;;;1.50;;
26977;SDS011;56314;48.088;11.642;2023-05-06T14:56:57;2.00;;;1.50;;